Amistad, New Mexico
Current Conditions -  °F | °C
As of 10:53 AM on Monday 26 Jan 2015 (Local Time) from KDHT Reporting Station
Clear Clear  
Wind Chill: 56°   Ceiling: Unl
Heat Index: 56°   Visibility: 10mi
Dew Point: 35°   Wind: 8mph
Humidity: 45%   Direction: 270°W
Pressure: 30.29"   Gusts: NA
Location:  35.92°N, 103.16°W
Report Text: KDHT 261753Z AUTO 27007KT 10SM CLR 13/02 A3029 RMK AO2 SLP244 T01330017 10133 20011 51013
Loading
Personal Weather Stations






























Interactive Weather Map New forecast layout! Learn more

10-Day Weather Forecast

Advertisements
Track Severe Weather on mobile